.
WxDataArchive / Data Records for 2010-09-13
2010-09-12 September 2010 2010-09-14

Data Records for Monday, 13 September 2010

Time	Temp	Chill	HIndex	Humid	Dewpt	 Wind 	HiWind	WindDir	Rain 	Barom 
-----	----	-----	------	-----	-----	------	------	-------	-----	----- 
00:00	61.5	61.5	61.5	64	49.2	0	0	---	0.00	30.009 
00:05	61.5	61.5	61.5	63	48.8	0	0	---	0.00	30.009 
00:10	61.5	61.5	61.5	63	48.8	0	0	---	0.00	30.009 
00:15	61.6	61.6	61.6	63	48.9	0	0	---	0.00	30.006 
00:20	61.6	61.6	61.6	63	48.9	0	1	270	0.00	30.006 
00:25	61.8	61.8	61.8	63	49.1	0	0	---	0.00	30.006 
00:30	62.0	62.0	62.0	62	48.8	0	0	---	0.00	30.004 
00:35	62.1	62.1	62.1	62	48.9	0	0	---	0.00	30.004 
00:40	62.3	62.3	62.3	62	49.1	0	1	270	0.00	30.004 
00:45	62.4	62.4	62.4	61	48.8	0	1	270	0.00	30.000 
00:50	62.7	62.7	62.7	61	49.1	0	1	270	0.00	30.000 
00:55	63.1	63.1	63.1	60	49.0	0	1	270	0.00	30.000 
01:00	63.2	63.2	63.2	60	49.1	0	1	270	0.00	29.997 
01:05	63.4	63.4	63.4	59	48.8	0	1	270	0.00	29.997 
01:10	63.5	63.5	63.5	59	48.9	0	2	270	0.00	29.997 
01:15	63.7	63.7	63.7	59	49.1	0	2	270	0.00	29.991 
01:20	63.7	63.7	63.7	59	49.1	0	1	270	0.00	29.991 
01:25	63.7	63.7	63.7	59	49.1	0	1	270	0.00	29.991 
01:30	63.9	63.9	63.9	59	49.3	0	1	270	0.00	29.989 
01:35	63.9	63.9	63.9	59	49.3	0	1	270	0.00	29.989 
01:40	63.9	63.9	63.9	59	49.3	0	3	270	0.00	29.989 
01:45	64.0	64.0	64.0	60	49.8	0	1	270	0.00	29.988 
01:50	64.2	64.2	64.2	59	49.6	0	2	270	0.00	29.988 
01:55	64.5	64.5	64.5	59	49.8	0	2	270	0.00	29.988 
02:00	64.7	64.7	64.7	59	50.0	0	2	270	0.00	29.988 
02:05	64.7	64.7	64.7	59	50.0	0	2	270	0.00	29.988 
02:10	64.8	64.8	64.8	59	50.1	0	3	270	0.00	29.988 
02:15	64.8	64.8	64.8	59	50.1	0	3	270	0.00	29.986 
02:20	65.0	65.0	65.0	59	50.3	0	4	270	0.00	29.986 
02:25	65.0	65.0	65.0	59	50.3	0	2	270	0.00	29.986 
02:30	65.0	65.0	65.0	59	50.3	0	2	270	0.00	29.986 
02:35	65.0	65.0	65.0	59	50.3	0	3	270	0.00	29.986 
02:40	65.0	65.0	65.0	59	50.3	0	3	270	0.00	29.986 
02:45	65.0	65.0	65.0	59	50.3	0	3	270	0.00	29.987 
02:50	65.0	65.0	65.0	59	50.3	0	3	248	0.00	29.987 
02:55	65.0	65.0	65.0	59	50.3	0	2	248	0.00	29.987 
03:00	65.0	65.0	65.0	59	50.3	0	2	248	0.00	29.985 
03:05	65.0	65.0	65.0	59	50.3	0	2	248	0.00	29.985 
03:10	65.0	65.0	65.0	59	50.3	0	4	248	0.00	29.985 
03:15	65.2	65.2	65.2	59	50.5	1	3	270	0.00	29.985 
03:20	65.2	65.2	65.2	59	50.5	1	2	270	0.00	29.985 
03:25	65.2	65.2	65.2	59	50.5	0	2	270	0.00	29.985 
03:30	65.2	65.2	65.2	59	50.5	0	1	270	0.00	29.984 
03:35	65.0	65.0	65.0	60	50.8	0	2	270	0.00	29.984 
03:40	65.0	65.0	65.0	60	50.8	0	2	270	0.00	29.984 
03:45	64.8	64.8	64.8	61	51.0	0	3	270	0.00	29.982 
03:50	64.8	64.8	64.8	61	51.0	1	3	270	0.00	29.982 
03:55	64.8	64.8	64.8	61	51.0	1	2	270	0.00	29.982 
04:00	64.7	64.7	64.7	62	51.4	0	2	270	0.00	29.977 
04:05	64.7	64.7	64.7	62	51.4	0	3	270	0.00	29.977 
04:10	64.8	64.8	64.8	62	51.5	1	4	270	0.00	29.977 
04:15	64.8	64.8	64.8	62	51.5	0	2	270	0.00	29.980 
04:20	65.0	65.0	65.0	62	51.7	1	3	270	0.00	29.980 
04:25	65.0	65.0	65.0	62	51.7	1	4	270	0.00	29.980 
04:30	65.0	65.0	65.0	62	51.7	1	3	270	0.00	29.984 
04:35	65.0	65.0	65.0	62	51.7	1	4	270	0.00	29.984 
04:40	65.0	65.0	65.0	63	52.1	1	4	270	0.00	29.984 
04:45	64.8	64.8	64.8	63	51.9	1	3	270	0.00	29.985 
04:50	64.8	64.8	64.8	63	51.9	1	4	270	0.00	29.985 
04:55	64.8	64.8	64.8	63	51.9	1	3	270	0.00	29.985 
05:00	64.7	64.7	64.7	64	52.2	1	4	270	0.00	29.986 
05:05	64.5	64.5	64.5	64	52.0	1	3	270	0.00	29.986 
05:10	64.3	64.3	64.3	65	52.3	1	2	270	0.00	29.986 
05:15	64.2	64.2	64.2	65	52.2	1	3	270	0.00	29.988 
05:20	64.2	64.2	64.2	65	52.2	1	3	270	0.00	29.988 
05:25	64.0	64.0	64.0	66	52.4	0	2	270	0.00	29.988 
05:30	63.7	63.7	63.7	66	52.1	0	2	270	0.00	29.991 
05:35	63.5	63.5	63.5	67	52.3	0	2	270	0.00	29.991 
05:40	63.4	63.4	63.4	67	52.2	0	2	270	0.00	29.991 
05:45	63.2	63.2	63.2	68	52.5	0	4	270	0.00	29.995 
05:50	63.1	63.1	63.1	68	52.4	0	2	270	0.00	29.995 
05:55	62.9	62.9	62.9	69	52.6	1	2	270	0.00	29.995 
06:00	62.7	62.7	62.7	69	52.4	0	2	270	0.00	29.999 
06:05	62.6	62.6	62.6	70	52.7	0	1	270	0.00	29.999 
06:10	62.4	62.4	62.4	70	52.5	0	1	270	0.00	29.999 
06:15	62.3	62.3	62.3	71	52.8	0	1	270	0.00	30.003 
06:20	62.1	62.1	62.1	71	52.6	0	1	270	0.00	30.003 
06:25	62.0	62.0	62.0	72	52.9	0	2	270	0.00	30.003 
06:30	61.8	61.8	61.8	72	52.7	0	1	270	0.00	30.003 
06:35	61.6	61.6	61.6	73	52.9	0	2	270	0.00	30.003 
06:40	61.5	61.5	61.5	73	52.8	0	2	270	0.00	30.003 
06:45	61.5	61.5	61.5	74	53.1	0	1	270	0.00	30.005 
06:50	61.5	61.5	61.5	74	53.1	0	1	270	0.00	30.005 
06:55	61.3	61.3	61.3	74	52.9	0	1	270	0.00	30.005 
07:00	61.3	61.3	61.3	74	52.9	0	1	270	0.00	30.009 
07:05	61.2	61.2	61.2	74	52.8	0	1	270	0.00	30.009 
07:10	61.0	61.0	61.0	75	53.0	0	0	---	0.00	30.009 
07:15	60.9	60.9	60.9	75	52.9	0	0	---	0.00	30.018 
07:20	60.7	60.7	60.7	75	52.7	0	0	---	0.00	30.018 
07:25	60.5	60.5	60.5	76	52.9	0	0	---	0.00	30.018 
07:30	60.4	60.4	60.4	76	52.8	0	1	270	0.00	30.019 
07:35	60.4	60.4	60.4	77	53.2	0	0	---	0.00	30.019 
07:40	60.2	60.2	60.2	77	53.0	0	0	---	0.00	30.019 
07:45	60.2	60.2	60.2	77	53.0	0	1	270	0.00	30.026 
07:50	60.2	60.2	60.2	77	53.0	0	1	270	0.00	30.026 
07:55	60.4	60.4	60.4	77	53.2	0	1	270	0.00	30.026 
08:00	60.4	60.4	60.4	77	53.2	0	1	270	0.00	30.027 
08:05	60.7	60.7	60.7	77	53.4	0	2	270	0.00	30.027 
08:10	60.9	60.9	60.9	77	53.6	0	1	270	0.00	30.027 
08:15	61.2	61.2	61.2	77	53.9	0	2	270	0.00	30.032 
08:20	61.3	61.3	61.3	76	53.7	0	1	270	0.00	30.032 
08:25	61.6	61.6	61.6	76	54.0	0	2	270	0.00	30.032 
08:30	62.0	62.0	62.0	75	54.0	1	3	270	0.00	30.029 
08:35	62.1	62.1	62.1	75	54.1	0	3	270	0.00	30.029 
08:40	62.4	62.4	62.4	74	54.0	0	2	270	0.00	30.029 
08:45	62.7	62.7	62.7	74	54.3	0	2	270	0.00	30.030 
08:50	63.1	63.1	63.1	74	54.7	0	3	270	0.00	30.030 
08:55	63.2	63.2	63.2	73	54.4	1	3	270	0.00	30.030 
09:00	63.5	63.5	63.5	73	54.7	0	2	270	0.00	30.029 
09:05	63.9	63.9	63.9	72	54.7	1	3	270	0.00	30.029 
09:10	64.2	64.2	64.2	72	55.0	1	3	270	0.00	30.029 
09:15	64.5	64.5	64.5	71	54.9	1	3	270	0.00	30.030 
09:20	64.8	64.8	64.8	71	55.2	0	3	270	0.00	30.030 
09:25	65.2	65.2	65.2	70	55.2	1	3	270	0.00	30.030 
09:30	65.5	65.5	65.5	70	55.4	0	2	270	0.00	30.029 
09:35	65.8	65.8	65.8	69	55.3	0	2	270	0.00	30.029 
09:40	66.1	66.1	66.1	69	55.6	0	2	270	0.00	30.029 
09:45	66.4	66.4	66.4	69	55.9	1	3	270	0.00	30.030 
09:50	66.8	66.8	66.8	68	55.9	2	5	270	0.00	30.030 
09:55	67.3	67.3	67.3	68	56.4	1	3	292	0.00	30.030 
10:00	67.9	67.9	67.9	66	56.1	2	3	292	0.00	30.029 
10:05	68.4	68.4	68.4	65	56.2	2	4	292	0.00	30.029 
10:10	68.8	68.8	68.8	65	56.5	1	3	292	0.00	30.029 
10:15	69.1	69.1	69.1	64	56.4	1	3	292	0.00	30.029 
10:20	69.6	69.6	69.6	63	56.4	1	3	292	0.00	30.029 
10:25	69.9	69.9	69.9	62	56.3	2	4	292	0.00	30.029 
10:30	70.4	70.4	70.4	62	56.7	1	3	292	0.00	30.027 
10:35	70.9	70.9	70.9	61	56.8	1	3	292	0.00	30.027 
10:40	71.5	71.5	71.5	61	57.3	1	4	292	0.00	30.027 
10:45	72.1	72.1	72.1	59	57.0	1	2	292	0.00	30.025 
10:50	72.7	72.7	72.7	58	57.1	1	3	292	0.00	30.025 
10:55	73.0	73.0	73.0	57	56.9	2	4	292	0.00	30.025 
11:00	73.3	73.3	73.3	57	57.1	1	3	248	0.00	30.025 
11:05	73.9	73.9	73.9	55	56.7	1	3	248	0.00	30.025 
11:10	74.2	74.2	74.2	54	56.5	1	4	292	0.00	30.025 
11:15	74.6	74.6	74.6	53	56.3	1	4	292	0.00	30.021 
11:20	74.9	74.9	74.9	54	57.1	1	2	292	0.00	30.021 
11:25	75.3	75.3	77.7	52	56.4	1	4	270	0.00	30.021 
11:30	75.8	75.8	78.0	51	56.4	1	2	270	0.00	30.017 
11:35	76.1	76.1	78.1	51	56.6	1	4	270	0.00	30.017 
11:40	76.5	76.5	78.3	48	55.3	1	5	248	0.00	30.017 
11:45	76.8	76.8	78.4	47	55.0	1	3	248	0.00	30.016 
11:50	77.0	77.0	78.5	46	54.6	1	3	248	0.00	30.016 
11:55	77.4	77.4	78.7	46	55.0	1	3	248	0.00	30.016 
12:00	78.1	78.1	79.2	47	56.2	1	2	248	0.00	30.011 
12:05	78.6	78.6	79.4	45	55.5	1	4	248	0.00	30.011 
12:10	79.0	79.0	79.3	40	52.6	2	4	270	0.00	30.011 
12:15	79.4	79.4	79.8	43	54.9	1	4	270	0.00	30.009 
12:20	79.6	79.6	79.7	40	53.1	2	4	270	0.00	30.009 
12:25	79.6	79.6	79.7	41	53.8	1	4	270	0.00	30.009 
12:30	79.6	79.6	79.5	38	51.7	2	5	270	0.00	30.008 
12:35	79.6	79.6	79.6	39	52.4	2	5	270	0.00	30.008 
12:40	79.9	79.9	79.6	37	51.3	1	3	248	0.00	30.008 
12:45	80.5	80.5	80.0	37	51.8	1	3	248	0.00	30.002 
12:50	80.9	80.9	80.3	37	52.2	1	3	270	0.00	30.002 
12:55	81.1	81.1	80.4	36	51.6	1	4	248	0.00	30.002 
13:00	81.6	81.6	80.5	34	50.5	1	3	292	0.00	29.997 
13:05	82.2	82.2	81.1	35	51.8	1	3	292	0.00	29.997 
13:10	81.8	81.8	80.3	30	47.3	2	4	292	0.00	29.997 
13:15	82.0	82.0	80.9	35	51.6	1	3	292	0.00	29.989 
13:20	82.4	82.4	81.1	34	51.2	1	4	270	0.00	29.989 
13:25	82.8	82.8	81.3	33	50.7	1	3	270	0.00	29.989 
13:30	83.0	83.0	81.4	32	50.1	1	3	270	0.00	29.984 
13:35	83.0	83.0	81.6	34	51.7	1	3	248	0.00	29.984 
13:40	83.0	83.0	81.4	32	50.1	1	3	248	0.00	29.984 
13:45	83.2	83.2	81.7	33	51.1	1	3	248	0.00	29.982 
13:50	83.2	83.2	81.4	30	48.5	2	5	248	0.00	29.982 
13:55	83.0	83.0	81.4	32	50.1	2	5	292	0.00	29.982 
14:00	83.4	83.4	81.7	32	50.4	1	5	270	0.00	29.980 
14:05	83.4	83.4	81.8	33	51.2	1	4	248	0.00	29.980 
14:10	83.4	83.4	81.6	31	49.6	2	6	270	0.00	29.980 
14:15	83.2	83.2	81.7	33	51.1	2	6	292	0.00	29.973 
14:20	83.4	83.4	81.9	34	52.1	1	4	292	0.00	29.973 
14:25	84.0	84.0	82.5	34	52.6	1	3	248	0.00	29.973 
14:30	84.5	84.5	82.9	34	53.0	1	4	248	0.00	29.969 
14:35	84.9	84.9	82.9	31	50.9	1	4	112	0.00	29.969 
14:40	85.3	85.3	83.1	30	50.3	1	3	248	0.00	29.969 
14:45	85.3	85.3	82.8	27	47.5	2	6	270	0.00	29.965 
14:50	84.5	84.5	82.2	28	47.8	2	6	270	0.00	29.965 
14:55	84.7	84.7	82.3	27	47.0	2	6	315	0.00	29.965 
15:00	84.9	84.9	82.5	27	47.2	2	4	292	0.00	29.963 
15:05	84.5	84.5	82.5	31	50.5	1	5	270	0.00	29.963 
15:10	85.1	85.1	82.8	29	49.2	1	5	270	0.00	29.963 
15:15	85.1	85.1	82.8	29	49.2	3	6	270	0.00	29.960 
15:20	84.7	84.7	82.4	28	48.0	2	6	292	0.00	29.960 
15:25	84.9	84.9	82.6	28	48.1	1	5	270	0.00	29.960 
15:30	85.3	85.3	82.7	26	46.5	2	7	270	0.00	29.956 
15:35	84.1	84.1	81.8	27	46.5	4	9	270	0.00	29.956 
15:40	84.1	84.1	81.8	27	46.5	3	6	270	0.00	29.956 
15:45	84.1	84.1	81.8	27	46.5	2	4	292	0.00	29.952 
15:50	83.6	83.6	81.5	28	47.0	3	6	315	0.00	29.952 
15:55	83.4	83.4	81.4	28	46.8	3	7	315	0.00	29.952 
16:00	84.1	84.1	81.9	28	47.4	2	8	315	0.00	29.951 
16:05	84.3	84.3	82.0	27	46.6	4	8	270	0.00	29.951 
16:10	84.5	84.5	82.2	28	47.8	2	6	270	0.00	29.951 
16:15	84.1	84.1	81.8	27	46.5	4	8	292	0.00	29.950 
16:20	83.4	83.4	81.3	27	45.9	3	7	315	0.00	29.950 
16:25	83.4	83.4	81.4	29	47.8	2	5	270	0.00	29.950 
16:30	83.8	83.8	81.6	27	46.2	3	5	292	0.00	29.947 
16:35	83.8	83.8	81.7	28	47.2	3	6	315	0.00	29.947 
16:40	83.8	83.8	81.6	27	46.2	3	10	270	0.00	29.947 
16:45	83.2	83.2	81.1	27	45.7	3	7	270	0.00	29.948 
16:50	83.2	83.2	81.1	27	45.7	3	6	292	0.00	29.948 
16:55	83.6	83.6	81.4	27	46.1	3	7	270	0.00	29.948 
17:00	83.6	83.6	81.5	28	47.0	3	6	315	0.00	29.948 
17:05	83.8	83.8	81.7	28	47.2	3	7	270	0.00	29.948 
17:10	83.8	83.8	81.7	28	47.2	4	8	270	0.00	29.948 
17:15	83.6	83.6	81.4	27	46.1	2	7	270	0.00	29.949 
17:20	83.2	83.2	81.1	27	45.7	3	7	270	0.00	29.949 
17:25	83.2	83.2	81.2	28	46.7	3	6	270	0.00	29.949 
17:30	83.4	83.4	81.4	28	46.8	3	6	270	0.00	29.946 
17:35	83.2	83.2	81.2	28	46.7	3	6	292	0.00	29.946 
17:40	83.2	83.2	81.3	29	47.6	3	14	270	0.00	29.946 
17:45	83.2	83.2	81.4	30	48.5	3	6	270	0.00	29.947 
17:50	83.0	83.0	81.1	29	47.4	2	5	270	0.00	29.947 
17:55	83.0	83.0	81.2	30	48.3	2	6	270	0.00	29.947 
18:00	83.0	83.0	81.1	29	47.4	2	4	315	0.00	29.949 
18:05	82.6	82.6	80.7	27	45.2	3	7	292	0.00	29.949 
18:10	82.4	82.4	80.6	28	46.0	3	6	292	0.00	29.949 
18:15	82.2	82.2	80.4	27	44.9	3	6	270	0.00	29.954 
18:20	82.0	82.0	80.3	28	45.7	2	7	292	0.00	29.954 
18:25	81.8	81.8	80.1	27	44.5	2	5	270	0.00	29.954 
18:30	81.6	81.6	80.1	28	45.3	2	5	270	0.00	29.955 
18:35	81.4	81.4	79.9	28	45.1	2	4	292	0.00	29.955 
18:40	81.1	81.1	79.7	28	44.9	3	6	315	0.00	29.955 
18:45	80.9	80.9	79.6	28	44.7	2	6	292	0.00	29.955 
18:50	80.5	80.5	79.4	28	44.4	2	5	315	0.00	29.955 
18:55	80.1	80.1	79.1	28	44.0	2	6	315	0.00	29.955 
19:00	79.8	79.8	78.9	28	43.8	2	6	315	0.00	29.962 
19:05	79.4	79.4	78.7	27	42.5	2	5	270	0.00	29.962 
19:10	79.0	79.0	78.5	28	43.1	2	4	315	0.00	29.962 
19:15	78.6	78.6	78.3	28	42.7	2	5	292	0.00	29.971 
19:20	78.3	78.3	78.1	28	42.5	2	4	315	0.00	29.971 
19:25	77.9	77.9	78.0	29	43.1	1	3	315	0.00	29.971 
19:30	77.6	77.6	77.9	30	43.7	1	3	315	0.00	29.973 
19:35	77.2	77.2	77.8	31	44.2	1	2	315	0.00	29.973 
19:40	76.8	76.8	77.7	32	44.7	1	4	315	0.00	29.973 
19:45	76.5	76.5	77.7	33	45.2	1	2	270	0.00	29.976 
19:50	76.1	76.1	77.6	34	45.7	0	1	270	0.00	29.976 
19:55	75.6	75.6	77.4	35	46.0	0	1	270	0.00	29.976 
20:00	75.1	75.1	77.4	38	47.7	0	1	270	0.00	29.979 
20:05	74.4	74.4	74.4	39	47.8	0	2	270	0.00	29.979 
20:10	74.0	74.0	74.0	40	48.1	0	2	270	0.00	29.979 
20:15	73.5	73.5	73.5	41	48.3	0	1	270	0.00	29.974 
20:20	73.0	73.0	73.0	42	48.5	0	0	---	0.00	29.974 
20:25	72.7	72.7	72.7	43	48.9	0	0	---	0.00	29.974 
20:30	72.1	72.1	72.1	44	49.0	0	1	270	0.00	29.976 
20:35	71.6	71.6	71.6	45	49.1	0	0	---	0.00	29.976 
20:40	71.3	71.3	71.3	46	49.4	0	0	---	0.00	29.976 
20:45	70.8	70.8	70.8	47	49.6	0	0	---	0.00	29.980 
20:50	70.4	70.4	70.4	47	49.2	0	1	270	0.00	29.980 
20:55	70.3	70.3	70.3	48	49.7	0	1	270	0.00	29.980 
21:00	69.9	69.9	69.9	49	49.9	0	1	270	0.00	29.983 
21:05	69.6	69.6	69.6	49	49.6	0	1	270	0.00	29.983 
21:10	69.3	69.3	69.3	49	49.3	0	0	---	0.00	29.983 
21:15	69.1	69.1	69.1	49	49.1	0	0	---	0.00	29.990 
21:20	68.9	68.9	68.9	50	49.5	0	0	---	0.00	29.990 
21:25	68.6	68.6	68.6	50	49.2	0	1	270	0.00	29.990 
21:30	68.4	68.4	68.4	50	49.0	0	0	---	0.00	29.991 
21:35	68.1	68.1	68.1	51	49.3	0	0	---	0.00	29.991 
21:40	67.8	67.8	67.8	51	49.0	0	0	---	0.00	29.991 
21:45	67.4	67.4	67.4	52	49.2	0	0	---	0.00	29.994 
21:50	67.1	67.1	67.1	53	49.4	0	0	---	0.00	29.994 
21:55	66.8	66.8	66.8	53	49.1	0	0	---	0.00	29.994 
22:00	66.6	66.6	66.6	54	49.4	0	0	---	0.00	29.995 
22:05	66.3	66.3	66.3	54	49.1	0	0	---	0.00	29.995 
22:10	66.1	66.1	66.1	54	49.0	0	0	---	0.00	29.995 
22:15	66.0	66.0	66.0	54	48.9	0	0	---	0.00	29.993 
22:20	65.8	65.8	65.8	54	48.7	0	0	---	0.00	29.993 
22:25	65.6	65.6	65.6	55	49.0	0	0	---	0.00	29.993 
22:30	65.3	65.3	65.3	55	48.7	0	0	---	0.00	29.994 
22:35	65.2	65.2	65.2	55	48.6	0	0	---	0.00	29.994 
22:40	64.8	64.8	64.8	56	48.7	0	0	---	0.00	29.994 
22:45	64.7	64.7	64.7	56	48.6	0	0	---	0.00	30.000 
22:50	64.5	64.5	64.5	56	48.4	0	0	---	0.00	30.000 
22:55	64.5	64.5	64.5	57	48.9	0	0	---	0.00	30.000 
23:00	64.3	64.3	64.3	57	48.7	0	0	---	0.00	30.005 
23:05	64.2	64.2	64.2	57	48.6	0	0	---	0.00	30.005 
23:10	64.2	64.2	64.2	57	48.6	0	0	---	0.00	30.005 
23:15	64.0	64.0	64.0	57	48.5	0	0	---	0.00	30.001 
23:20	63.9	63.9	63.9	57	48.4	0	0	---	0.00	30.001 
23:25	63.9	63.9	63.9	57	48.4	0	0	---	0.00	30.001 
23:30	63.7	63.7	63.7	58	48.6	0	0	---	0.00	30.001 
23:35	63.4	63.4	63.4	58	48.4	0	0	---	0.00	30.001 
23:40	63.2	63.2	63.2	58	48.2	0	0	---	0.00	30.001 
23:45	63.1	63.1	63.1	59	48.5	0	0	---	0.00	29.998 
23:50	62.9	62.9	62.9	59	48.3	0	0	---	0.00	29.998 
23:55	62.7	62.7	62.7	59	48.2	0	0	---	0.00	29.998 

CoCoRaHS
IN-AL-39
A2 Web Hosting
Creative Commons License
GoDaddy
search engine by freefind advanced

loaded 2018-11-13 21:50:26 • last modified 2010-11-18 10:43:29
Privacy PolicyDisclaimer
• wx.awcolley.com is powered by PmWiki v.2002016 •
• all content (unless otherwise noted) © 2018 A W Colley